Shawswick, Indiana
Current Conditions -  °F | °C
As of 1:17 PM on Sunday 25 Jan 2015 (Local Time) from KBMG Reporting Station
Light Rain Light Rain  
Wind Chill: 34°   Ceiling: 3500
Heat Index: 39°   Visibility: 5mi
Dew Point: 36°   Wind: 7mph
Humidity: 89%   Direction: 130°SE
Pressure: 29.62"   Gusts: NA
Location:  38.8737°N, 86.4563°W
Report Text: KBMG 251817Z 13006KT 5SM -RA BR FEW025 BKN035 OVC049 04/02 A2962 RMK AO2 P0002 T00390022 $
Loading
Personal Weather Stations






























Interactive Weather Map New forecast layout! Learn more

10-Day Weather Forecast

Advertisements
Track Severe Weather on mobile